sensor_id;sensor_type;location;lat;lon;timestamp;pressure;altitude;pressure_sealevel;temperature;humidity
65534;BME280;53640;55.838;37.184;2022-09-28T00:01:16;98132.31;;;7.72;57.31
65534;BME280;53640;55.838;37.184;2022-09-28T00:03:44;98101.22;;;7.57;57.37
65534;BME280;53640;55.838;37.184;2022-09-28T00:06:13;98127.66;;;7.79;57.46
65534;BME280;53640;55.838;37.184;2022-09-28T00:08:39;98097.47;;;7.58;57.17
65534;BME280;53640;55.838;37.184;2022-09-28T00:11:07;98110.13;;;7.58;57.09
65534;BME280;53640;55.838;37.184;2022-09-28T00:13:36;98133.84;;;7.79;57.15
65534;BME280;53640;55.838;37.184;2022-09-28T00:16:11;98121.28;;;7.73;57.25
65534;BME280;53640;55.838;37.184;2022-09-28T00:18:39;98136.75;;;7.78;57.15
65534;BME280;53640;55.838;37.184;2022-09-28T00:21:07;98126.81;;;7.78;57.08
65534;BME280;53640;55.838;37.184;2022-09-28T00:23:34;98093.97;;;7.58;57.19
65534;BME280;53640;55.838;37.184;2022-09-28T00:26:21;98099.47;;;7.63;57.17
65534;BME280;53640;55.838;37.184;2022-09-28T00:28:52;98094.78;;;7.58;57.05
65534;BME280;53640;55.838;37.184;2022-09-28T00:31:19;98107.38;;;7.76;57.04
65534;BME280;53640;55.838;37.184;2022-09-28T00:33:54;98074.16;;;7.52;57.04
65534;BME280;53640;55.838;37.184;2022-09-28T00:36:23;98061.84;;;7.45;57.05
65534;BME280;53640;55.838;37.184;2022-09-28T00:38:49;98099.63;;;7.68;57.00
65534;BME280;53640;55.838;37.184;2022-09-28T00:41:16;98053.63;;;7.39;57.09
65534;BME280;53640;55.838;37.184;2022-09-28T00:43:43;98103.59;;;7.66;57.06
65534;BME280;53640;55.838;37.184;2022-09-28T00:46:13;98065.38;;;7.45;57.33
65534;BME280;53640;55.838;37.184;2022-09-28T00:49:04;98087.31;;;7.60;57.41
65534;BME280;53640;55.838;37.184;2022-09-28T00:51:37;98078.50;;;7.53;57.41
65534;BME280;53640;55.838;37.184;2022-09-28T00:54:06;98041.09;;;7.33;57.44
65534;BME280;53640;55.838;37.184;2022-09-28T00:56:35;98063.13;;;7.42;57.50
65534;BME280;53640;55.838;37.184;2022-09-28T00:59:05;98075.28;;;7.45;57.39
65534;BME280;53640;55.838;37.184;2022-09-28T01:01:33;98075.53;;;7.43;57.42
65534;BME280;53640;55.838;37.184;2022-09-28T01:04:00;98043.28;;;7.25;57.44
65534;BME280;53640;55.838;37.184;2022-09-28T01:06:30;98031.56;;;7.19;57.72
65534;BME280;53640;55.838;37.184;2022-09-28T01:09:00;98045.06;;;7.31;57.78
65534;BME280;53640;55.838;37.184;2022-09-28T01:11:30;98029.41;;;7.09;57.88
65534;BME280;53640;55.838;37.184;2022-09-28T01:13:57;98002.22;;;6.99;57.99
65534;BME280;53640;55.838;37.184;2022-09-28T01:16:50;98034.03;;;7.21;57.85
65534;BME280;53640;55.838;37.184;2022-09-28T01:27:41;98040.38;;;7.26;58.12
65534;BME280;53640;55.838;37.184;2022-09-28T01:30:19;98027.09;;;7.13;58.02
65534;BME280;53640;55.838;37.184;2022-09-28T01:32:54;98014.91;;;7.10;57.91
65534;BME280;53640;55.838;37.184;2022-09-28T01:37:54;98027.59;;;7.22;58.13
65534;BME280;53640;55.838;37.184;2022-09-28T01:40:23;98031.56;;;7.19;58.28
65534;BME280;53640;55.838;37.184;2022-09-28T01:45:43;98012.59;;;7.14;57.93
65534;BME280;53640;55.838;37.184;2022-09-28T01:48:15;98004.38;;;7.09;58.27
65534;BME280;53640;55.838;37.184;2022-09-28T01:50:46;97907.97;;;6.46;58.55
65534;BME280;53640;55.838;37.184;2022-09-28T01:53:23;98008.34;;;7.06;58.58
65534;BME280;53640;55.838;37.184;2022-09-28T01:55:57;98022.09;;;7.17;58.62
65534;BME280;53640;55.838;37.184;2022-09-28T01:58:41;98019.38;;;7.17;58.89
65534;BME280;53640;55.838;37.184;2022-09-28T02:01:21;97998.75;;;7.10;58.72
65534;BME280;53640;55.838;37.184;2022-09-28T02:03:59;97957.97;;;6.83;58.68
65534;BME280;53640;55.838;37.184;2022-09-28T02:06:49;97990.69;;;7.10;58.79
65534;BME280;53640;55.838;37.184;2022-09-28T02:09:21;97964.31;;;6.89;58.90
65534;BME280;53640;55.838;37.184;2022-09-28T02:11:56;98000.63;;;7.10;59.09
65534;BME280;53640;55.838;37.184;2022-09-28T02:14:25;97994.69;;;7.08;59.15
65534;BME280;53640;55.838;37.184;2022-09-28T02:16:55;97959.06;;;6.94;59.26
65534;BME280;53640;55.838;37.184;2022-09-28T02:19:30;97975.94;;;7.01;58.99
65534;BME280;53640;55.838;37.184;2022-09-28T02:22:27;97951.25;;;6.93;58.79
65534;BME280;53640;55.838;37.184;2022-09-28T02:25:02;97930.47;;;6.81;59.21
65534;BME280;53640;55.838;37.184;2022-09-28T02:28:00;97981.81;;;7.10;59.51
65534;BME280;53640;55.838;37.184;2022-09-28T02:30:30;97924.72;;;6.78;59.57
65534;BME280;53640;55.838;37.184;2022-09-28T02:33:05;97965.19;;;7.01;59.43
65534;BME280;53640;55.838;37.184;2022-09-28T02:35:36;97972.19;;;7.02;59.75
65534;BME280;53640;55.838;37.184;2022-09-28T02:38:02;97968.94;;;7.00;59.85
65534;BME280;53640;55.838;37.184;2022-09-28T02:40:33;97957.81;;;6.97;60.02
65534;BME280;53640;55.838;37.184;2022-09-28T02:51:26;97951.13;;;6.99;60.04
65534;BME280;53640;55.838;37.184;2022-09-28T02:54:16;97944.09;;;6.98;59.83
65534;BME280;53640;55.838;37.184;2022-09-28T03:09:00;97923.75;;;6.72;60.86
65534;BME280;53640;55.838;37.184;2022-09-28T03:11:39;97931.75;;;6.79;60.54
65534;BME280;53640;55.838;37.184;2022-09-28T03:14:08;97941.44;;;6.80;60.49
65534;BME280;53640;55.838;37.184;2022-09-28T03:16:45;97915.47;;;6.74;60.60
65534;BME280;53640;55.838;37.184;2022-09-28T03:19:12;97931.44;;;6.87;60.79
65534;BME280;53640;55.838;37.184;2022-09-28T03:21:38;97911.13;;;6.73;60.62
65534;BME280;53640;55.838;37.184;2022-09-28T03:24:05;97929.34;;;6.89;60.85
65534;BME280;53640;55.838;37.184;2022-09-28T03:26:33;97902.59;;;6.76;60.50
65534;BME280;53640;55.838;37.184;2022-09-28T03:28:59;97886.44;;;6.64;60.82
65534;BME280;53640;55.838;37.184;2022-09-28T03:31:26;97935.31;;;6.91;60.62
65534;BME280;53640;55.838;37.184;2022-09-28T03:33:53;97939.41;;;6.94;60.84
65534;BME280;53640;55.838;37.184;2022-09-28T03:36:20;97923.97;;;6.89;60.70
65534;BME280;53640;55.838;37.184;2022-09-28T03:38:47;97920.22;;;6.90;60.63
65534;BME280;53640;55.838;37.184;2022-09-28T03:41:13;97918.47;;;6.96;60.73
65534;BME280;53640;55.838;37.184;2022-09-28T03:43:42;97820.06;;;6.34;60.69
65534;BME280;53640;55.838;37.184;2022-09-28T03:46:08;97915.22;;;6.94;60.79
65534;BME280;53640;55.838;37.184;2022-09-28T03:48:40;97886.38;;;6.82;61.08
65534;BME280;53640;55.838;37.184;2022-09-28T03:51:10;97893.34;;;6.90;60.77
65534;BME280;53640;55.838;37.184;2022-09-28T03:53:39;97887.72;;;6.91;61.12
65534;BME280;53640;55.838;37.184;2022-09-28T03:56:12;97854.66;;;6.73;60.83
65534;BME280;53640;55.838;37.184;2022-09-28T03:58:39;97878.47;;;6.87;60.93
65534;BME280;53640;55.838;37.184;2022-09-28T04:01:09;97899.88;;;6.94;61.00
65534;BME280;53640;55.838;37.184;2022-09-28T04:03:39;97836.63;;;6.61;60.73
65534;BME280;53640;55.838;37.184;2022-09-28T04:06:06;97874.50;;;6.90;60.98
65534;BME280;53640;55.838;37.184;2022-09-28T04:08:35;97871.22;;;6.88;61.13
65534;BME280;53640;55.838;37.184;2022-09-28T04:11:01;97870.19;;;6.89;61.07
65534;BME280;53640;55.838;37.184;2022-09-28T04:13:29;97838.53;;;6.73;61.15
65534;BME280;53640;55.838;37.184;2022-09-28T04:15:58;97854.84;;;6.89;61.09
65534;BME280;53640;55.838;37.184;2022-09-28T04:18:28;97869.47;;;6.94;61.04
65534;BME280;53640;55.838;37.184;2022-09-28T04:21:15;97827.75;;;6.73;61.09
65534;BME280;53640;55.838;37.184;2022-09-28T04:23:46;97824.50;;;6.71;61.04
65534;BME280;53640;55.838;37.184;2022-09-28T04:26:19;97859.53;;;6.94;61.10
65534;BME280;53640;55.838;37.184;2022-09-28T04:28:46;97843.84;;;6.91;61.30
65534;BME280;53640;55.838;37.184;2022-09-28T04:31:41;97862.94;;;7.01;61.10
65534;BME280;53640;55.838;37.184;2022-09-28T04:34:10;97831.94;;;6.87;61.40
65534;BME280;53640;55.838;37.184;2022-09-28T04:36:38;97815.75;;;6.75;61.14
65534;BME280;53640;55.838;37.184;2022-09-28T04:39:04;97806.84;;;6.75;61.05
65534;BME280;53640;55.838;37.184;2022-09-28T04:41:32;97843.84;;;6.91;60.96
65534;BME280;53640;55.838;37.184;2022-09-28T04:44:00;97855.00;;;7.06;61.17
65534;BME280;53640;55.838;37.184;2022-09-28T04:46:27;97819.88;;;6.89;60.82
65534;BME280;53640;55.838;37.184;2022-09-28T04:49:13;97817.19;;;6.89;60.91
65534;BME280;53640;55.838;37.184;2022-09-28T04:51:45;97810.88;;;6.84;61.34
65534;BME280;53640;55.838;37.184;2022-09-28T04:54:12;97840.50;;;7.07;61.18
65534;BME280;53640;55.838;37.184;2022-09-28T04:56:38;97843.31;;;7.12;61.24
65534;BME280;53640;55.838;37.184;2022-09-28T04:59:04;97836.50;;;7.10;61.46
65534;BME280;53640;55.838;37.184;2022-09-28T05:01:31;97829.59;;;7.02;61.33
65534;BME280;53640;55.838;37.184;2022-09-28T05:04:15;97826.00;;;7.08;61.41
65534;BME280;53640;55.838;37.184;2022-09-28T05:07:14;97787.09;;;6.81;61.42
65534;BME280;53640;55.838;37.184;2022-09-28T05:09:41;97822.84;;;7.11;61.51
65534;BME280;53640;55.838;37.184;2022-09-28T05:12:16;97813.25;;;7.04;61.63
65534;BME280;53640;55.838;37.184;2022-09-28T05:14:43;97789.00;;;6.92;61.47
65534;BME280;53640;55.838;37.184;2022-09-28T05:17:09;97827.72;;;7.14;61.57
65534;BME280;53640;55.838;37.184;2022-09-28T05:19:56;97797.09;;;7.04;61.49
65534;BME280;53640;55.838;37.184;2022-09-28T05:22:22;97808.31;;;7.12;61.56
65534;BME280;53640;55.838;37.184;2022-09-28T05:24:48;97758.00;;;6.78;62.05
65534;BME280;53640;55.838;37.184;2022-09-28T05:27:16;97787.72;;;7.06;61.74
65534;BME280;53640;55.838;37.184;2022-09-28T05:29:45;97805.03;;;7.22;61.69
65534;BME280;53640;55.838;37.184;2022-09-28T05:32:30;97756.97;;;6.90;61.62
65534;BME280;53640;55.838;37.184;2022-09-28T05:35:04;97803.06;;;7.18;61.92
65534;BME280;53640;55.838;37.184;2022-09-28T05:37:40;97808.06;;;7.26;61.64
65534;BME280;53640;55.838;37.184;2022-09-28T05:40:06;97767.25;;;7.05;61.66
65534;BME280;53640;55.838;37.184;2022-09-28T05:42:33;97766.81;;;7.08;61.81
65534;BME280;53640;55.838;37.184;2022-09-28T05:44:59;97803.91;;;7.30;61.84
65534;BME280;53640;55.838;37.184;2022-09-28T05:47:26;97757.31;;;7.06;61.74
65534;BME280;53640;55.838;37.184;2022-09-28T05:49:53;97795.22;;;7.28;61.72
65534;BME280;53640;55.838;37.184;2022-09-28T05:52:20;97809.38;;;7.35;61.65
65534;BME280;53640;55.838;37.184;2022-09-28T05:54:47;97789.25;;;7.26;61.54
65534;BME280;53640;55.838;37.184;2022-09-28T05:57:13;97749.03;;;7.07;61.62
65534;BME280;53640;55.838;37.184;2022-09-28T05:59:40;97755.94;;;7.15;61.63
65534;BME280;53640;55.838;37.184;2022-09-28T06:02:06;97775.44;;;7.34;61.47
65534;BME280;53640;55.838;37.184;2022-09-28T06:04:33;97764.34;;;7.30;61.87
65534;BME280;53640;55.838;37.184;2022-09-28T06:06:59;97776.59;;;7.38;61.62
65534;BME280;53640;55.838;37.184;2022-09-28T06:09:26;97765.63;;;7.28;61.63
65534;BME280;53640;55.838;37.184;2022-09-28T06:12:09;97783.38;;;7.40;61.79
65534;BME280;53640;55.838;37.184;2022-09-28T06:14:43;97788.88;;;7.46;61.50
65534;BME280;53640;55.838;37.184;2022-09-28T06:17:10;97769.22;;;7.33;61.70
65534;BME280;53640;55.838;37.184;2022-09-28T06:19:37;97768.75;;;7.36;61.85
65534;BME280;53640;55.838;37.184;2022-09-28T06:22:24;97773.66;;;7.39;61.93
65534;BME280;53640;55.838;37.184;2022-09-28T06:25:04;97776.13;;;7.41;62.14
65534;BME280;53640;55.838;37.184;2022-09-28T06:27:33;97785.81;;;7.54;61.58
65534;BME280;53640;55.838;37.184;2022-09-28T06:29:59;97772.72;;;7.46;61.69
65534;BME280;53640;55.838;37.184;2022-09-28T06:32:30;97753.91;;;7.34;61.66
65534;BME280;53640;55.838;37.184;2022-09-28T06:34:57;97784.03;;;7.59;61.76
65534;BME280;53640;55.838;37.184;2022-09-28T06:37:25;97742.66;;;7.37;61.71
65534;BME280;53640;55.838;37.184;2022-09-28T06:39:52;97788.50;;;7.66;61.49
65534;BME280;53640;55.838;37.184;2022-09-28T06:42:19;97726.50;;;7.37;61.54
65534;BME280;53640;55.838;37.184;2022-09-28T06:45:22;97771.44;;;7.60;61.73
65534;BME280;53640;55.838;37.184;2022-09-28T06:48:48;97777.59;;;7.72;61.52
65534;BME280;53640;55.838;37.184;2022-09-28T06:51:35;97700.78;;;7.18;61.33
65534;BME280;53640;55.838;37.184;2022-09-28T06:54:20;97706.09;;;7.12;61.67
65534;BME280;53640;55.838;37.184;2022-09-28T06:57:32;97646.34;;;6.87;61.58
65534;BME280;53640;55.838;37.184;2022-09-28T07:00:27;97707.34;;;7.22;61.66
65534;BME280;53640;55.838;37.184;2022-09-28T07:03:00;97647.75;;;6.89;61.57
65534;BME280;53640;55.838;37.184;2022-09-28T07:05:56;97656.88;;;7.00;61.36
65534;BME280;53640;55.838;37.184;2022-09-28T07:08:38;97670.16;;;7.19;61.44
65534;BME280;53640;55.838;37.184;2022-09-28T07:11:23;97755.56;;;7.75;61.39
65534;BME280;53640;55.838;37.184;2022-09-28T07:14:10;97715.00;;;7.53;61.32
65534;BME280;53640;55.838;37.184;2022-09-28T07:16:38;97769.81;;;7.87;61.33
65534;BME280;53640;55.838;37.184;2022-09-28T07:19:04;97699.88;;;7.52;61.30
65534;BME280;53640;55.838;37.184;2022-09-28T07:21:31;97735.41;;;7.78;61.02
65534;BME280;53640;55.838;37.184;2022-09-28T07:24:03;97758.78;;;7.89;61.23
65534;BME280;53640;55.838;37.184;2022-09-28T07:26:39;97688.81;;;7.49;61.29
65534;BME280;53640;55.838;37.184;2022-09-28T07:29:24;97720.44;;;7.70;61.04
65534;BME280;53640;55.838;37.184;2022-09-28T07:32:16;97761.69;;;7.99;61.14
65534;BME280;53640;55.838;37.184;2022-09-28T07:35:02;97667.97;;;7.44;61.08
65534;BME280;53640;55.838;37.184;2022-09-28T07:37:39;97718.44;;;7.77;60.99
65534;BME280;53640;55.838;37.184;2022-09-28T07:40:07;97753.94;;;8.03;61.24
65534;BME280;53640;55.838;37.184;2022-09-28T07:42:52;97745.53;;;7.99;61.17
65534;BME280;53640;55.838;37.184;2022-09-28T07:45:19;97711.38;;;7.88;61.11
65534;BME280;53640;55.838;37.184;2022-09-28T07:47:54;97706.44;;;7.85;61.09
65534;BME280;53640;55.838;37.184;2022-09-28T07:50:52;97753.31;;;8.24;60.71
65534;BME280;53640;55.838;37.184;2022-09-28T07:53:51;97752.09;;;8.32;60.76
65534;BME280;53640;55.838;37.184;2022-09-28T07:56:57;97734.53;;;8.18;60.77
65534;BME280;53640;55.838;37.184;2022-09-28T07:59:40;97750.28;;;8.38;60.71
65534;BME280;53640;55.838;37.184;2022-09-28T08:02:37;97753.66;;;8.45;60.45
65534;BME280;53640;55.838;37.184;2022-09-28T08:05:04;97688.53;;;8.07;60.17
65534;BME280;53640;55.838;37.184;2022-09-28T08:07:33;97714.91;;;8.34;60.32
65534;BME280;53640;55.838;37.184;2022-09-28T08:10:09;97711.41;;;8.33;59.94
65534;BME280;53640;55.838;37.184;2022-09-28T08:13:01;97619.69;;;7.83;59.77
65534;BME280;53640;55.838;37.184;2022-09-28T08:15:39;97611.50;;;7.78;59.70
65534;BME280;53640;55.838;37.184;2022-09-28T08:18:14;97749.91;;;8.63;59.84
65534;BME280;53640;55.838;37.184;2022-09-28T08:20:40;97661.50;;;8.02;59.47
65534;BME280;53640;55.838;37.184;2022-09-28T08:23:25;97739.59;;;8.59;59.55
65534;BME280;53640;55.838;37.184;2022-09-28T08:25:53;97676.88;;;8.19;59.73
65534;BME280;53640;55.838;37.184;2022-09-28T08:28:22;97653.59;;;8.12;59.63
65534;BME280;53640;55.838;37.184;2022-09-28T08:30:51;97752.19;;;8.71;59.64
65534;BME280;53640;55.838;37.184;2022-09-28T08:33:43;97694.91;;;8.47;59.01
65534;BME280;53640;55.838;37.184;2022-09-28T08:36:28;97735.41;;;8.69;59.70
65534;BME280;53640;55.838;37.184;2022-09-28T08:39:00;97711.88;;;8.64;59.26
65534;BME280;53640;55.838;37.184;2022-09-28T08:44:51;97676.25;;;8.45;59.10
65534;BME280;53640;55.838;37.184;2022-09-28T08:48:16;97731.34;;;8.83;59.16
65534;BME280;53640;55.838;37.184;2022-09-28T08:51:46;97716.31;;;8.70;59.11
65534;BME280;53640;55.838;37.184;2022-09-28T08:57:13;97731.00;;;8.79;59.00
65534;BME280;53640;55.838;37.184;2022-09-28T08:59:48;97724.25;;;8.77;58.80
65534;BME280;53640;55.838;37.184;2022-09-28T09:02:36;97728.88;;;8.81;58.72
65534;BME280;53640;55.838;37.184;2022-09-28T09:05:20;97710.66;;;8.72;58.99
65534;BME280;53640;55.838;37.184;2022-09-28T09:08:26;97728.97;;;8.87;59.01
65534;BME280;53640;55.838;37.184;2022-09-28T09:11:01;97707.78;;;8.78;59.06
65534;BME280;53640;55.838;37.184;2022-09-28T09:17:00;97736.47;;;9.01;59.07
65534;BME280;53640;55.838;37.184;2022-09-28T09:19:52;97682.53;;;8.68;58.90
65534;BME280;53640;55.838;37.184;2022-09-28T09:25:39;97733.34;;;9.09;58.55
65534;BME280;53640;55.838;37.184;2022-09-28T09:28:26;97737.44;;;9.12;58.76
65534;BME280;53640;55.838;37.184;2022-09-28T09:31:30;97729.91;;;9.14;58.37
65534;BME280;53640;55.838;37.184;2022-09-28T09:37:20;97732.34;;;9.16;58.33
65534;BME280;53640;55.838;37.184;2022-09-28T09:47:06;97732.03;;;9.12;58.04
65534;BME280;53640;55.838;37.184;2022-09-28T09:49:53;97744.78;;;9.17;57.86
65534;BME280;53640;55.838;37.184;2022-09-28T09:52:26;97738.25;;;9.13;57.93
65534;BME280;53640;55.838;37.184;2022-09-28T09:55:02;97728.44;;;9.06;58.04
65534;BME280;53640;55.838;37.184;2022-09-28T09:57:49;97713.09;;;8.90;57.98
65534;BME280;53640;55.838;37.184;2022-09-28T10:00:34;97736.78;;;9.05;58.21
65534;BME280;53640;55.838;37.184;2022-09-28T10:03:26;97735.91;;;8.99;58.13
65534;BME280;53640;55.838;37.184;2022-09-28T10:06:06;97726.59;;;8.90;58.23
65534;BME280;53640;55.838;37.184;2022-09-28T10:08:39;97727.06;;;8.87;58.43
65534;BME280;53640;55.838;37.184;2022-09-28T10:11:11;97700.34;;;8.69;58.63
65534;BME280;53640;55.838;37.184;2022-09-28T10:13:41;97742.84;;;8.95;58.69
65534;BME280;53640;55.838;37.184;2022-09-28T10:16:30;97738.03;;;8.97;58.26
65534;BME280;53640;55.838;37.184;2022-09-28T10:18:59;97724.47;;;8.92;58.32
65534;BME280;53640;55.838;37.184;2022-09-28T10:21:46;97691.88;;;8.77;58.50
65534;BME280;53640;55.838;37.184;2022-09-28T10:24:37;97731.31;;;9.00;58.38
65534;BME280;53640;55.838;37.184;2022-09-28T10:27:16;97733.00;;;9.06;58.27
65534;BME280;53640;55.838;37.184;2022-09-28T10:29:49;97716.69;;;8.96;58.55
65534;BME280;53640;55.838;37.184;2022-09-28T10:32:21;97720.28;;;9.01;58.22
65534;BME280;53640;55.838;37.184;2022-09-28T10:34:50;97738.84;;;9.15;58.13
65534;BME280;53640;55.838;37.184;2022-09-28T10:37:20;97714.38;;;9.04;58.04
65534;BME280;53640;55.838;37.184;2022-09-28T10:43:00;97720.44;;;9.12;57.74
65534;BME280;53640;55.838;37.184;2022-09-28T10:45:33;97713.91;;;9.07;57.35
65534;BME280;53640;55.838;37.184;2022-09-28T10:48:03;97725.66;;;9.18;57.28
65534;BME280;53640;55.838;37.184;2022-09-28T10:50:31;97723.78;;;9.19;57.27
65534;BME280;53640;55.838;37.184;2022-09-28T10:53:18;97695.97;;;9.01;57.08
65534;BME280;53640;55.838;37.184;2022-09-28T10:56:20;97690.84;;;9.00;56.81
65534;BME280;53640;55.838;37.184;2022-09-28T10:58:51;97722.84;;;9.30;57.12
65534;BME280;53640;55.838;37.184;2022-09-28T11:01:38;97719.31;;;9.29;56.86
65534;BME280;53640;55.838;37.184;2022-09-28T11:04:05;97718.91;;;9.21;57.00
65534;BME280;53640;55.838;37.184;2022-09-28T11:06:38;97732.56;;;9.31;56.46
65534;BME280;53640;55.838;37.184;2022-09-28T11:09:24;97708.31;;;9.14;57.02
65534;BME280;53640;55.838;37.184;2022-09-28T11:11:53;97717.88;;;9.22;56.96
65534;BME280;53640;55.838;37.184;2022-09-28T11:19:56;97711.25;;;9.13;56.70
65534;BME280;53640;55.838;37.184;2022-09-28T11:28:01;97729.50;;;9.22;57.08
65534;BME280;53640;55.838;37.184;2022-09-28T11:30:46;97704.88;;;9.02;57.24
65534;BME280;53640;55.838;37.184;2022-09-28T11:33:36;97735.44;;;9.24;57.16
65534;BME280;53640;55.838;37.184;2022-09-28T11:44:48;97738.94;;;9.25;57.13
65534;BME280;53640;55.838;37.184;2022-09-28T11:51:29;97609.91;;;8.44;56.86
65534;BME280;53640;55.838;37.184;2022-09-28T11:54:08;97642.66;;;8.70;57.28
65534;BME280;53640;55.838;37.184;2022-09-28T11:56:46;97745.56;;;9.34;57.06
65534;BME280;53640;55.838;37.184;2022-09-28T11:59:44;97732.72;;;9.41;57.28
65534;BME280;53640;55.838;37.184;2022-09-28T12:06:18;97621.91;;;8.70;56.89
65534;BME280;53640;55.838;37.184;2022-09-28T12:09:03;97667.38;;;9.00;56.91
65534;BME280;53640;55.838;37.184;2022-09-28T12:11:59;97686.47;;;9.16;56.76
65534;BME280;53640;55.838;37.184;2022-09-28T12:14:44;97681.25;;;9.09;56.51
65534;BME280;53640;55.838;37.184;2022-09-28T12:17:44;97649.25;;;8.79;56.43
65534;BME280;53640;55.838;37.184;2022-09-28T12:22:52;97628.03;;;8.66;56.66
65534;BME280;53640;55.838;37.184;2022-09-28T12:25:22;97687.88;;;9.01;56.63
65534;BME280;53640;55.838;37.184;2022-09-28T12:27:59;97663.56;;;8.79;56.50
65534;BME280;53640;55.838;37.184;2022-09-28T12:30:34;97762.91;;;9.38;56.42
65534;BME280;53640;55.838;37.184;2022-09-28T12:33:17;97697.06;;;9.00;56.40
65534;BME280;53640;55.838;37.184;2022-09-28T12:43:30;97738.72;;;9.26;56.67
65534;BME280;53640;55.838;37.184;2022-09-28T13:19:28;97624.28;;;8.16;57.23
65534;BME280;53640;55.838;37.184;2022-09-28T13:25:29;97636.94;;;8.16;56.89
65534;BME280;53640;55.838;37.184;2022-09-28T13:28:04;97681.00;;;8.38;57.22
65534;BME280;53640;55.838;37.184;2022-09-28T13:30:40;97721.44;;;8.72;57.26
65534;BME280;53640;55.838;37.184;2022-09-28T13:33:14;97624.53;;;8.15;56.77
65534;BME280;53640;55.838;37.184;2022-09-28T13:35:42;97694.81;;;8.58;57.03
65534;BME280;53640;55.838;37.184;2022-09-28T13:46:57;97736.25;;;9.03;56.66
65534;BME280;53640;55.838;37.184;2022-09-28T13:56:00;97641.38;;;8.39;57.09
65534;BME280;53640;55.838;37.184;2022-09-28T13:58:42;97621.03;;;8.31;56.89
65534;BME280;53640;55.838;37.184;2022-09-28T14:01:24;97647.19;;;8.47;56.60
65534;BME280;53640;55.838;37.184;2022-09-28T14:06:42;97719.63;;;8.94;56.92
65534;BME280;53640;55.838;37.184;2022-09-28T14:11:53;97733.84;;;9.06;56.90
65534;BME280;53640;55.838;37.184;2022-09-28T14:20:01;97738.63;;;8.99;56.92
65534;BME280;53640;55.838;37.184;2022-09-28T14:25:26;97769.50;;;9.08;56.98
65534;BME280;53640;55.838;37.184;2022-09-28T14:30:44;97774.16;;;9.13;57.22
65534;BME280;53640;55.838;37.184;2022-09-28T14:35:57;97781.44;;;9.13;57.32
65534;BME280;53640;55.838;37.184;2022-09-28T14:38:28;97779.81;;;9.12;57.39
65534;BME280;53640;55.838;37.184;2022-09-28T14:48:50;97783.91;;;9.14;57.74
65534;BME280;53640;55.838;37.184;2022-09-28T14:56:38;97798.72;;;9.12;57.65
65534;BME280;53640;55.838;37.184;2022-09-28T14:59:08;97799.44;;;9.07;57.54
65534;BME280;53640;55.838;37.184;2022-09-28T15:01:37;97806.81;;;9.12;57.60
65534;BME280;53640;55.838;37.184;2022-09-28T15:04:09;97795.03;;;9.01;57.45
65534;BME280;53640;55.838;37.184;2022-09-28T15:06:48;97810.47;;;9.05;58.02
65534;BME280;53640;55.838;37.184;2022-09-28T15:09:28;97818.34;;;9.07;57.46
65534;BME280;53640;55.838;37.184;2022-09-28T15:12:19;97811.47;;;8.99;57.83
65534;BME280;53640;55.838;37.184;2022-09-28T15:14:58;97782.75;;;8.76;57.94
65534;BME280;53640;55.838;37.184;2022-09-28T15:17:35;97795.75;;;8.79;57.87
65534;BME280;53640;55.838;37.184;2022-09-28T15:22:50;97806.56;;;8.79;58.13
65534;BME280;53640;55.838;37.184;2022-09-28T15:25:20;97789.47;;;8.74;57.99
65534;BME280;53640;55.838;37.184;2022-09-28T15:27:51;97776.22;;;8.55;57.98
65534;BME280;53640;55.838;37.184;2022-09-28T15:32:48;97825.63;;;8.90;58.07
65534;BME280;53640;55.838;37.184;2022-09-28T15:35:20;97841.72;;;9.01;58.00
65534;BME280;53640;55.838;37.184;2022-09-28T15:37:49;97846.91;;;9.03;57.91
65534;BME280;53640;55.838;37.184;2022-09-28T15:40:31;97831.81;;;8.90;58.03
65534;BME280;53640;55.838;37.184;2022-09-28T15:42:58;97854.72;;;9.04;57.92
65534;BME280;53640;55.838;37.184;2022-09-28T15:45:27;97857.91;;;9.01;57.99
65534;BME280;53640;55.838;37.184;2022-09-28T15:48:34;97860.13;;;9.04;58.17
65534;BME280;53640;55.838;37.184;2022-09-28T15:51:09;97830.81;;;8.79;57.92
65534;BME280;53640;55.838;37.184;2022-09-28T15:53:59;97831.63;;;8.80;57.86
65534;BME280;53640;55.838;37.184;2022-09-28T15:56:28;97800.34;;;8.62;58.21
65534;BME280;53640;55.838;37.184;2022-09-28T15:59:07;97864.38;;;9.00;58.55
65534;BME280;53640;55.838;37.184;2022-09-28T16:01:37;97803.69;;;8.69;58.32
65534;BME280;53640;55.838;37.184;2022-09-28T16:07:19;97718.53;;;8.11;58.19
65534;BME280;53640;55.838;37.184;2022-09-28T16:09:55;97856.84;;;9.02;58.40
65534;BME280;53640;55.838;37.184;2022-09-28T16:12:29;97753.13;;;8.31;58.50
65534;BME280;53640;55.838;37.184;2022-09-28T16:15:03;97747.41;;;8.27;58.33
65534;BME280;53640;55.838;37.184;2022-09-28T16:17:33;97839.44;;;8.93;58.44
65534;BME280;53640;55.838;37.184;2022-09-28T16:20:04;97860.06;;;8.99;58.39
65534;BME280;53640;55.838;37.184;2022-09-28T16:22:46;97747.25;;;8.34;58.61
65534;BME280;53640;55.838;37.184;2022-09-28T16:25:21;97762.81;;;8.44;58.74
65534;BME280;53640;55.838;37.184;2022-09-28T16:27:51;97703.56;;;8.03;58.42
65534;BME280;53640;55.838;37.184;2022-09-28T16:30:30;97769.00;;;8.44;58.70
65534;BME280;53640;55.838;37.184;2022-09-28T16:33:03;97765.06;;;8.35;58.50
65534;BME280;53640;55.838;37.184;2022-09-28T16:38:13;97773.25;;;8.40;58.75
65534;BME280;53640;55.838;37.184;2022-09-28T16:40:48;97731.84;;;8.18;58.80
65534;BME280;53640;55.838;37.184;2022-09-28T16:43:26;97729.16;;;8.18;58.94
65534;BME280;53640;55.838;37.184;2022-09-28T16:45:55;97765.16;;;8.40;58.76
65534;BME280;53640;55.838;37.184;2022-09-28T16:48:35;97783.06;;;8.46;58.90
65534;BME280;53640;55.838;37.184;2022-09-28T16:51:04;97731.25;;;8.16;58.88
65534;BME280;53640;55.838;37.184;2022-09-28T16:53:31;97764.50;;;8.33;58.80
65534;BME280;53640;55.838;37.184;2022-09-28T16:56:21;97796.66;;;8.51;58.86
65534;BME280;53640;55.838;37.184;2022-09-28T16:58:47;97752.59;;;8.17;58.99